sensor_id;sensor_type;location;lat;lon;timestamp;pressure;altitude;pressure_sealevel;temperature;humidity
14253;BME280;7210;51.502;10.722;2023-04-28T00:01:10;99819.28;;;4.96;88.62
14253;BME280;7210;51.502;10.722;2023-04-28T00:03:37;99809.75;;;4.88;88.91
14253;BME280;7210;51.502;10.722;2023-04-28T00:06:04;99817.78;;;4.87;89.10
14253;BME280;7210;51.502;10.722;2023-04-28T00:08:32;99810.25;;;4.84;89.34
14253;BME280;7210;51.502;10.722;2023-04-28T00:11:00;99812.88;;;4.84;89.24
14253;BME280;7210;51.502;10.722;2023-04-28T00:13:27;99806.91;;;4.90;89.31
14253;BME280;7210;51.502;10.722;2023-04-28T00:15:55;99805.56;;;4.94;89.42
14253;BME280;7210;51.502;10.722;2023-04-28T00:18:22;99794.06;;;4.95;89.31
14253;BME280;7210;51.502;10.722;2023-04-28T00:20:49;99788.00;;;4.94;89.45
14253;BME280;7210;51.502;10.722;2023-04-28T00:23:16;99783.94;;;4.92;89.42
14253;BME280;7210;51.502;10.722;2023-04-28T00:25:43;99780.38;;;4.93;89.63
14253;BME280;7210;51.502;10.722;2023-04-28T00:28:12;99779.09;;;4.89;90.14
14253;BME280;7210;51.502;10.722;2023-04-28T00:30:39;99772.06;;;4.89;90.31
14253;BME280;7210;51.502;10.722;2023-04-28T00:33:08;99771.41;;;4.87;90.60
14253;BME280;7210;51.502;10.722;2023-04-28T00:35:35;99772.25;;;4.88;90.68
14253;BME280;7210;51.502;10.722;2023-04-28T00:38:02;99777.09;;;4.91;91.04
14253;BME280;7210;51.502;10.722;2023-04-28T00:40:32;99778.38;;;4.95;91.43
14253;BME280;7210;51.502;10.722;2023-04-28T00:42:59;99776.53;;;4.95;91.46
14253;BME280;7210;51.502;10.722;2023-04-28T00:45:28;99750.41;;;4.81;91.70
14253;BME280;7210;51.502;10.722;2023-04-28T00:47:56;99761.75;;;4.88;92.03
14253;BME280;7210;51.502;10.722;2023-04-28T00:50:25;99761.31;;;4.84;91.98
14253;BME280;7210;51.502;10.722;2023-04-28T00:52:52;99764.13;;;4.83;92.37
14253;BME280;7210;51.502;10.722;2023-04-28T00:55:21;99754.84;;;4.80;92.59
14253;BME280;7210;51.502;10.722;2023-04-28T00:57:50;99746.78;;;4.82;92.60
14253;BME280;7210;51.502;10.722;2023-04-28T01:00:18;99748.41;;;4.83;92.72
14253;BME280;7210;51.502;10.722;2023-04-28T01:02:48;99742.00;;;4.85;93.03
14253;BME280;7210;51.502;10.722;2023-04-28T01:05:16;99724.84;;;4.83;93.25
14253;BME280;7210;51.502;10.722;2023-04-28T01:07:45;99730.34;;;4.88;93.07
14253;BME280;7210;51.502;10.722;2023-04-28T01:10:12;99728.34;;;4.90;93.40
14253;BME280;7210;51.502;10.722;2023-04-28T01:12:39;99730.78;;;4.91;93.65
14253;BME280;7210;51.502;10.722;2023-04-28T01:15:14;99733.84;;;4.95;93.82
14253;BME280;7210;51.502;10.722;2023-04-28T01:17:44;99717.84;;;4.90;94.04
14253;BME280;7210;51.502;10.722;2023-04-28T01:20:14;99720.72;;;4.95;94.50
14253;BME280;7210;51.502;10.722;2023-04-28T01:22:41;99719.13;;;4.94;94.20
14253;BME280;7210;51.502;10.722;2023-04-28T01:25:10;99715.84;;;4.92;94.38
14253;BME280;7210;51.502;10.722;2023-04-28T01:27:37;99720.72;;;4.95;94.81
14253;BME280;7210;51.502;10.722;2023-04-28T01:30:08;99688.59;;;4.86;95.05
14253;BME280;7210;51.502;10.722;2023-04-28T01:32:35;99692.94;;;4.94;95.03
14253;BME280;7210;51.502;10.722;2023-04-28T01:35:02;99696.41;;;5.01;95.22
14253;BME280;7210;51.502;10.722;2023-04-28T01:37:31;99694.41;;;5.03;94.96
14253;BME280;7210;51.502;10.722;2023-04-28T01:40:00;99693.03;;;5.07;95.15
14253;BME280;7210;51.502;10.722;2023-04-28T01:42:32;99691.09;;;5.15;94.88
14253;BME280;7210;51.502;10.722;2023-04-28T01:45:01;99690.91;;;5.17;95.07
14253;BME280;7210;51.502;10.722;2023-04-28T01:47:30;99675.97;;;5.17;95.00
14253;BME280;7210;51.502;10.722;2023-04-28T01:50:02;99658.81;;;5.15;94.79
14253;BME280;7210;51.502;10.722;2023-04-28T01:52:30;99656.97;;;5.09;94.88
14253;BME280;7210;51.502;10.722;2023-04-28T01:55:02;99641.41;;;5.01;94.87
14253;BME280;7210;51.502;10.722;2023-04-28T01:57:29;99636.53;;;4.98;95.01
14253;BME280;7210;51.502;10.722;2023-04-28T01:59:59;99639.34;;;4.96;95.08
14253;BME280;7210;51.502;10.722;2023-04-28T02:02:27;99638.53;;;4.96;95.04
14253;BME280;7210;51.502;10.722;2023-04-28T02:04:56;99641.16;;;4.96;95.00
14253;BME280;7210;51.502;10.722;2023-04-28T02:07:23;99636.09;;;4.94;94.75
14253;BME280;7210;51.502;10.722;2023-04-28T02:09:51;99627.63;;;4.92;94.72
14253;BME280;7210;51.502;10.722;2023-04-28T02:15:11;99638.00;;;5.07;94.51
14253;BME280;7210;51.502;10.722;2023-04-28T02:17:38;99622.91;;;5.09;94.30
14253;BME280;7210;51.502;10.722;2023-04-28T02:20:07;99616.91;;;5.15;94.22
14253;BME280;7210;51.502;10.722;2023-04-28T02:22:34;99611.28;;;5.18;94.28
14253;BME280;7210;51.502;10.722;2023-04-28T02:25:02;99605.88;;;5.19;94.04
14253;BME280;7210;51.502;10.722;2023-04-28T02:27:29;99598.94;;;5.12;93.79
14253;BME280;7210;51.502;10.722;2023-04-28T02:29:56;99589.22;;;5.06;94.13
14253;BME280;7210;51.502;10.722;2023-04-28T02:32:24;99589.81;;;5.01;94.14
14253;BME280;7210;51.502;10.722;2023-04-28T02:34:52;99585.31;;;4.95;94.25
14253;BME280;7210;51.502;10.722;2023-04-28T02:37:21;99574.00;;;4.88;94.21
14253;BME280;7210;51.502;10.722;2023-04-28T02:39:50;99568.28;;;4.78;94.48
14253;BME280;7210;51.502;10.722;2023-04-28T02:42:19;99583.56;;;4.75;94.75
14253;BME280;7210;51.502;10.722;2023-04-28T02:44:46;99586.38;;;4.73;95.03
14253;BME280;7210;51.502;10.722;2023-04-28T02:47:14;99584.13;;;4.70;95.18
14253;BME280;7210;51.502;10.722;2023-04-28T02:49:42;99586.31;;;4.67;95.45
14253;BME280;7210;51.502;10.722;2023-04-28T02:52:09;99585.09;;;4.63;95.88
14253;BME280;7210;51.502;10.722;2023-04-28T02:54:36;99581.81;;;4.61;96.03
14253;BME280;7210;51.502;10.722;2023-04-28T02:57:10;99582.66;;;4.61;96.36
14253;BME280;7210;51.502;10.722;2023-04-28T02:59:37;99569.75;;;4.60;96.59
14253;BME280;7210;51.502;10.722;2023-04-28T03:02:04;99579.41;;;4.59;96.96
14253;BME280;7210;51.502;10.722;2023-04-28T03:04:31;99571.75;;;4.58;97.31
14253;BME280;7210;51.502;10.722;2023-04-28T03:07:00;99575.63;;;4.62;97.27
14253;BME280;7210;51.502;10.722;2023-04-28T03:09:27;99565.75;;;4.64;97.73
14253;BME280;7210;51.502;10.722;2023-04-28T03:11:54;99565.63;;;4.72;97.79
14253;BME280;7210;51.502;10.722;2023-04-28T03:14:21;99564.22;;;4.76;98.17
14253;BME280;7210;51.502;10.722;2023-04-28T03:16:49;99558.03;;;4.77;98.21
14253;BME280;7210;51.502;10.722;2023-04-28T03:19:16;99555.88;;;4.87;98.37
14253;BME280;7210;51.502;10.722;2023-04-28T03:21:45;99552.25;;;4.88;98.13
14253;BME280;7210;51.502;10.722;2023-04-28T03:24:14;99550.03;;;4.85;98.15
14253;BME280;7210;51.502;10.722;2023-04-28T03:26:41;99549.00;;;4.86;98.38
14253;BME280;7210;51.502;10.722;2023-04-28T03:29:09;99540.16;;;4.87;98.74
14253;BME280;7210;51.502;10.722;2023-04-28T03:31:36;99533.47;;;4.84;98.86
14253;BME280;7210;51.502;10.722;2023-04-28T03:34:03;99550.03;;;4.85;98.84
14253;BME280;7210;51.502;10.722;2023-04-28T03:36:31;99538.53;;;4.86;99.25
14253;BME280;7210;51.502;10.722;2023-04-28T03:39:07;99538.53;;;4.86;99.40
14253;BME280;7210;51.502;10.722;2023-04-28T03:41:36;99528.06;;;4.86;99.66
14253;BME280;7210;51.502;10.722;2023-04-28T03:44:22;99531.28;;;4.88;99.84
14253;BME280;7210;51.502;10.722;2023-04-28T03:46:51;99522.44;;;4.89;100.00
14253;BME280;7210;51.502;10.722;2023-04-28T03:49:18;99528.09;;;4.92;100.00
14253;BME280;7210;51.502;10.722;2023-04-28T03:51:45;99526.28;;;4.93;100.00
14253;BME280;7210;51.502;10.722;2023-04-28T03:54:13;99533.38;;;4.99;100.00
14253;BME280;7210;51.502;10.722;2023-04-28T03:56:43;99522.28;;;4.97;100.00
14253;BME280;7210;51.502;10.722;2023-04-28T03:59:10;99515.03;;;4.99;100.00
14253;BME280;7210;51.502;10.722;2023-04-28T04:01:38;99511.81;;;4.97;100.00
14253;BME280;7210;51.502;10.722;2023-04-28T04:04:05;99509.19;;;4.97;100.00
14253;BME280;7210;51.502;10.722;2023-04-28T04:06:33;99507.81;;;5.01;100.00
14253;BME280;7210;51.502;10.722;2023-04-28T04:09:01;99497.94;;;5.03;100.00
14253;BME280;7210;51.502;10.722;2023-04-28T04:11:28;99491.09;;;5.02;100.00
14253;BME280;7210;51.502;10.722;2023-04-28T04:13:57;99491.72;;;5.10;100.00
14253;BME280;7210;51.502;10.722;2023-04-28T04:16:25;99486.72;;;5.15;100.00
14253;BME280;7210;51.502;10.722;2023-04-28T04:18:55;99482.28;;;5.16;100.00
14253;BME280;7210;51.502;10.722;2023-04-28T04:21:29;99482.31;;;5.22;100.00
14253;BME280;7210;51.502;10.722;2023-04-28T04:23:57;99478.50;;;5.25;100.00
14253;BME280;7210;51.502;10.722;2023-04-28T04:26:24;99471.84;;;5.29;100.00
14253;BME280;7210;51.502;10.722;2023-04-28T04:28:51;99469.69;;;5.39;100.00
14253;BME280;7210;51.502;10.722;2023-04-28T04:31:20;99467.44;;;5.42;100.00
14253;BME280;7210;51.502;10.722;2023-04-28T04:33:47;99467.88;;;5.46;100.00
14253;BME280;7210;51.502;10.722;2023-04-28T04:36:16;99469.88;;;5.44;100.00
14253;BME280;7210;51.502;10.722;2023-04-28T04:38:43;99467.88;;;5.46;100.00
14253;BME280;7210;51.502;10.722;2023-04-28T04:41:17;99459.81;;;5.47;100.00
14253;BME280;7210;51.502;10.722;2023-04-28T04:43:46;99451.34;;;5.52;100.00
14253;BME280;7210;51.502;10.722;2023-04-28T04:46:13;99449.56;;;5.59;100.00
14253;BME280;7210;51.502;10.722;2023-04-28T04:48:42;99450.19;;;5.67;100.00
14253;BME280;7210;51.502;10.722;2023-04-28T04:51:10;99449.38;;;5.73;100.00
14253;BME280;7210;51.502;10.722;2023-04-28T04:53:37;99437.31;;;5.79;100.00
14253;BME280;7210;51.502;10.722;2023-04-28T04:56:06;99439.38;;;5.83;100.00
14253;BME280;7210;51.502;10.722;2023-04-28T04:58:37;99435.13;;;5.89;99.87
14253;BME280;7210;51.502;10.722;2023-04-28T05:01:23;99437.97;;;5.94;99.79
14253;BME280;7210;51.502;10.722;2023-04-28T05:03:53;99443.00;;;6.02;99.76
14253;BME280;7210;51.502;10.722;2023-04-28T05:06:20;99440.56;;;6.07;99.76
14253;BME280;7210;51.502;10.722;2023-04-28T05:08:48;99444.44;;;6.11;99.63
14253;BME280;7210;51.502;10.722;2023-04-28T05:11:16;99451.50;;;6.17;99.42
14253;BME280;7210;51.502;10.722;2023-04-28T05:13:43;99443.59;;;6.30;99.45
14253;BME280;7210;51.502;10.722;2023-04-28T05:16:11;99431.31;;;6.30;99.22
14253;BME280;7210;51.502;10.722;2023-04-28T05:18:45;99424.81;;;6.26;99.23
14253;BME280;7210;51.502;10.722;2023-04-28T05:21:15;99439.78;;;6.32;99.09
14253;BME280;7210;51.502;10.722;2023-04-28T05:23:43;99442.19;;;6.34;99.25
14253;BME280;7210;51.502;10.722;2023-04-28T05:26:11;99444.63;;;6.42;99.59
14253;BME280;7210;51.502;10.722;2023-04-28T05:28:40;99452.09;;;6.51;99.71
14253;BME280;7210;51.502;10.722;2023-04-28T05:31:08;99451.66;;;6.61;99.64
14253;BME280;7210;51.502;10.722;2023-04-28T05:33:35;99464.38;;;6.70;99.88
14253;BME280;7210;51.502;10.722;2023-04-28T05:36:04;99465.56;;;6.81;100.00
14253;BME280;7210;51.502;10.722;2023-04-28T05:38:33;99463.09;;;6.86;99.90
14253;BME280;7210;51.502;10.722;2023-04-28T05:41:01;99461.06;;;6.94;100.00
14253;BME280;7210;51.502;10.722;2023-04-28T05:43:28;99459.03;;;7.03;99.95
14253;BME280;7210;51.502;10.722;2023-04-28T05:45:56;99456.19;;;7.11;99.81
14253;BME280;7210;51.502;10.722;2023-04-28T05:48:23;99467.06;;;7.21;99.70
14253;BME280;7210;51.502;10.722;2023-04-28T05:50:50;99467.84;;;7.28;99.81
14253;BME280;7210;51.502;10.722;2023-04-28T05:53:18;99458.91;;;7.35;99.57
14253;BME280;7210;51.502;10.722;2023-04-28T05:55:48;99456.84;;;7.43;99.27
14253;BME280;7210;51.502;10.722;2023-04-28T05:58:15;99436.97;;;7.47;98.88
14253;BME280;7210;51.502;10.722;2023-04-28T06:00:43;99434.50;;;7.59;98.78
14253;BME280;7210;51.502;10.722;2023-04-28T06:03:10;99436.91;;;7.60;98.54
14253;BME280;7210;51.502;10.722;2023-04-28T06:05:39;99433.50;;;7.60;98.06
14253;BME280;7210;51.502;10.722;2023-04-28T06:08:07;99422.75;;;7.61;97.38
14253;BME280;7210;51.502;10.722;2023-04-28T06:10:34;99419.91;;;7.63;97.00
14253;BME280;7210;51.502;10.722;2023-04-28T06:13:04;99419.28;;;7.67;96.51
14253;BME280;7210;51.502;10.722;2023-04-28T06:15:31;99412.34;;;7.73;96.21
14253;BME280;7210;51.502;10.722;2023-04-28T06:17:59;99410.09;;;7.76;95.07
14253;BME280;7210;51.502;10.722;2023-04-28T06:20:27;99393.47;;;7.82;94.71
14253;BME280;7210;51.502;10.722;2023-04-28T06:22:56;99386.72;;;7.93;93.65
14253;BME280;7210;51.502;10.722;2023-04-28T06:25:24;99382.41;;;7.98;92.47
14253;BME280;7210;51.502;10.722;2023-04-28T06:27:53;99358.44;;;8.06;91.65
14253;BME280;7210;51.502;10.722;2023-04-28T06:30:23;99333.69;;;8.14;90.10
14253;BME280;7210;51.502;10.722;2023-04-28T06:32:50;99322.06;;;8.21;89.03
14253;BME280;7210;51.502;10.722;2023-04-28T06:35:22;99312.06;;;8.30;88.25
14253;BME280;7210;51.502;10.722;2023-04-28T06:37:52;99300.63;;;8.36;87.26
14253;BME280;7210;51.502;10.722;2023-04-28T06:40:20;99306.59;;;8.49;86.49
14253;BME280;7210;51.502;10.722;2023-04-28T06:42:52;99305.69;;;8.55;85.70
14253;BME280;7210;51.502;10.722;2023-04-28T06:45:26;99306.72;;;8.72;85.18
14253;BME280;7210;51.502;10.722;2023-04-28T06:47:56;99317.00;;;8.92;84.60
14253;BME280;7210;51.502;10.722;2023-04-28T06:50:23;99310.41;;;9.01;83.79
14253;BME280;7210;51.502;10.722;2023-04-28T06:52:50;99302.97;;;9.09;82.82
14253;BME280;7210;51.502;10.722;2023-04-28T06:55:22;99283.41;;;9.17;81.75
14253;BME280;7210;51.502;10.722;2023-04-28T06:57:49;99281.47;;;9.24;81.11
14253;BME280;7210;51.502;10.722;2023-04-28T07:00:17;99296.06;;;9.38;80.84
14253;BME280;7210;51.502;10.722;2023-04-28T07:02:45;99309.97;;;9.56;80.37
14253;BME280;7210;51.502;10.722;2023-04-28T07:05:12;99323.88;;;9.75;79.93
14253;BME280;7210;51.502;10.722;2023-04-28T07:07:40;99353.63;;;9.93;79.81
14253;BME280;7210;51.502;10.722;2023-04-28T07:10:08;99321.03;;;9.99;79.00
14253;BME280;7210;51.502;10.722;2023-04-28T07:12:36;99312.56;;;9.97;78.86
14253;BME280;7210;51.502;10.722;2023-04-28T07:15:04;99338.16;;;9.97;78.81
14253;BME280;7210;51.502;10.722;2023-04-28T07:17:31;99334.13;;;9.94;78.35
14253;BME280;7210;51.502;10.722;2023-04-28T07:20:00;99332.97;;;9.90;78.16
14253;BME280;7210;51.502;10.722;2023-04-28T07:22:27;99340.34;;;9.88;78.00
14253;BME280;7210;51.502;10.722;2023-04-28T07:24:54;99321.94;;;9.82;77.46
14253;BME280;7210;51.502;10.722;2023-04-28T07:27:21;99353.19;;;9.85;77.75
14253;BME280;7210;51.502;10.722;2023-04-28T07:29:49;99372.47;;;9.85;77.48
14253;BME280;7210;51.502;10.722;2023-04-28T07:32:16;99371.69;;;9.85;77.56
14253;BME280;7210;51.502;10.722;2023-04-28T07:34:43;99387.50;;;9.85;77.21
14253;BME280;7210;51.502;10.722;2023-04-28T07:37:12;99402.69;;;9.89;77.17
14253;BME280;7210;51.502;10.722;2023-04-28T07:39:39;99389.13;;;9.86;76.70
14253;BME280;7210;51.502;10.722;2023-04-28T07:42:06;99402.53;;;9.84;76.86
14253;BME280;7210;51.502;10.722;2023-04-28T07:44:34;99409.44;;;9.85;76.45
14253;BME280;7210;51.502;10.722;2023-04-28T07:47:02;99439.31;;;9.97;76.51
14253;BME280;7210;51.502;10.722;2023-04-28T07:49:30;99460.25;;;10.10;76.44
14253;BME280;7210;51.502;10.722;2023-04-28T07:51:57;99474.78;;;10.19;76.41
14253;BME280;7210;51.502;10.722;2023-04-28T07:54:26;99449.50;;;10.23;75.62
14253;BME280;7210;51.502;10.722;2023-04-28T07:56:55;99445.47;;;10.21;75.46
14253;BME280;7210;51.502;10.722;2023-04-28T07:59:22;99429.16;;;10.12;74.89
14253;BME280;7210;51.502;10.722;2023-04-28T08:01:50;99426.94;;;10.09;74.94
14253;BME280;7210;51.502;10.722;2023-04-28T08:04:17;99437.25;;;9.99;74.95
14253;BME280;7210;51.502;10.722;2023-04-28T08:06:44;99460.78;;;10.01;75.11
14253;BME280;7210;51.502;10.722;2023-04-28T08:09:11;99477.81;;;10.05;75.12
14253;BME280;7210;51.502;10.722;2023-04-28T08:11:40;99505.44;;;10.02;75.93
14253;BME280;7210;51.502;10.722;2023-04-28T08:14:07;99523.22;;;10.13;75.75
14253;BME280;7210;51.502;10.722;2023-04-28T08:16:40;99535.28;;;10.21;75.73
14253;BME280;7210;51.502;10.722;2023-04-28T08:19:08;99538.63;;;10.28;75.47
14253;BME280;7210;51.502;10.722;2023-04-28T08:21:35;99542.81;;;10.35;75.21
14253;BME280;7210;51.502;10.722;2023-04-28T08:24:02;99536.34;;;10.31;75.21
14253;BME280;7210;51.502;10.722;2023-04-28T08:26:30;99552.69;;;10.28;75.61
14253;BME280;7210;51.502;10.722;2023-04-28T08:28:58;99568.53;;;10.28;75.76
14253;BME280;7210;51.502;10.722;2023-04-28T08:31:26;99559.31;;;10.19;75.77
14253;BME280;7210;51.502;10.722;2023-04-28T08:33:53;99540.22;;;10.17;75.64
14253;BME280;7210;51.502;10.722;2023-04-28T08:36:20;99570.88;;;10.18;76.02
14253;BME280;7210;51.502;10.722;2023-04-28T08:38:48;99586.88;;;10.23;75.99
14253;BME280;7210;51.502;10.722;2023-04-28T08:41:16;99597.44;;;10.23;76.12
14253;BME280;7210;51.502;10.722;2023-04-28T08:43:44;99607.50;;;10.33;76.17
14253;BME280;7210;51.502;10.722;2023-04-28T08:46:15;99623.97;;;10.46;75.74
14253;BME280;7210;51.502;10.722;2023-04-28T08:48:44;99604.66;;;10.57;75.38
14253;BME280;7210;51.502;10.722;2023-04-28T08:51:15;99594.22;;;10.62;75.02
14253;BME280;7210;51.502;10.722;2023-04-28T08:53:49;99577.34;;;10.63;74.81
14253;BME280;7210;51.502;10.722;2023-04-28T08:56:17;99579.44;;;10.73;74.48
14253;BME280;7210;51.502;10.722;2023-04-28T08:58:49;99576.66;;;10.79;74.29
14253;BME280;7210;51.502;10.722;2023-04-28T09:01:18;99562.19;;;10.93;73.57
14253;BME280;7210;51.502;10.722;2023-04-28T09:03:46;99547.84;;;11.12;72.88
14253;BME280;7210;51.502;10.722;2023-04-28T09:06:13;99567.59;;;11.44;72.40
14253;BME280;7210;51.502;10.722;2023-04-28T09:08:41;99567.56;;;11.67;71.75
14253;BME280;7210;51.502;10.722;2023-04-28T09:11:10;99575.66;;;12.00;71.31
14253;BME280;7210;51.502;10.722;2023-04-28T09:13:39;99578.75;;;12.25;70.72
14253;BME280;7210;51.502;10.722;2023-04-28T09:16:06;99510.41;;;12.27;69.79
14253;BME280;7210;51.502;10.722;2023-04-28T09:18:35;99513.72;;;12.34;69.47
14253;BME280;7210;51.502;10.722;2023-04-28T09:21:04;99535.56;;;12.41;69.54
14253;BME280;7210;51.502;10.722;2023-04-28T09:23:32;99560.66;;;12.50;69.38
14253;BME280;7210;51.502;10.722;2023-04-28T09:26:02;99558.59;;;12.85;68.69
14253;BME280;7210;51.502;10.722;2023-04-28T09:28:30;99613.69;;;13.11;68.93
14253;BME280;7210;51.502;10.722;2023-04-28T09:30:57;99650.44;;;13.35;68.93
14253;BME280;7210;51.502;10.722;2023-04-28T09:33:24;99621.47;;;13.50;67.93
14253;BME280;7210;51.502;10.722;2023-04-28T09:35:53;99558.25;;;13.31;67.50
14253;BME280;7210;51.502;10.722;2023-04-28T09:38:22;99510.97;;;13.11;66.88
14253;BME280;7210;51.502;10.722;2023-04-28T09:40:55;99572.56;;;13.30;67.09
14253;BME280;7210;51.502;10.722;2023-04-28T09:43:28;99600.66;;;13.64;66.72
14253;BME280;7210;51.502;10.722;2023-04-28T09:45:58;99506.69;;;13.48;65.38
14253;BME280;7210;51.502;10.722;2023-04-28T09:48:30;99498.69;;;13.27;65.57
14253;BME280;7210;51.502;10.722;2023-04-28T09:51:01;99527.91;;;13.27;65.21
14253;BME280;7210;51.502;10.722;2023-04-28T09:53:29;99492.75;;;13.20;64.87
14253;BME280;7210;51.502;10.722;2023-04-28T09:55:59;99508.63;;;13.15;64.90
14253;BME280;7210;51.502;10.722;2023-04-28T09:58:28;99590.00;;;13.42;65.39
14253;BME280;7210;51.502;10.722;2023-04-28T10:00:58;99610.66;;;13.57;65.42
14253;BME280;7210;51.502;10.722;2023-04-28T10:03:29;99610.84;;;13.72;64.84
14253;BME280;7210;51.502;10.722;2023-04-28T10:05:58;99569.69;;;13.74;64.21
14253;BME280;7210;51.502;10.722;2023-04-28T10:08:26;99593.72;;;13.84;64.07
14253;BME280;7210;51.502;10.722;2023-04-28T10:10:55;99578.03;;;13.83;63.96
14253;BME280;7210;51.502;10.722;2023-04-28T10:13:23;99563.44;;;13.64;64.23
14253;BME280;7210;51.502;10.722;2023-04-28T10:15:51;99624.06;;;13.67;64.63
14253;BME280;7210;51.502;10.722;2023-04-28T10:18:23;99576.63;;;13.54;64.36
14253;BME280;7210;51.502;10.722;2023-04-28T10:20:56;99551.75;;;13.22;64.68
14253;BME280;7210;51.502;10.722;2023-04-28T10:23:58;99594.13;;;13.17;65.41
14253;BME280;7210;51.502;10.722;2023-04-28T10:27:02;99654.78;;;13.25;66.15
14253;BME280;7210;51.502;10.722;2023-04-28T10:29:31;99680.22;;;13.37;66.23
14253;BME280;7210;51.502;10.722;2023-04-28T10:32:16;99722.22;;;13.73;66.12
14253;BME280;7210;51.502;10.722;2023-04-28T10:34:44;99725.34;;;13.87;66.06
14253;BME280;7210;51.502;10.722;2023-04-28T10:37:12;99722.13;;;13.85;66.61
14253;BME280;7210;51.502;10.722;2023-04-28T10:40:32;99757.88;;;13.94;67.17
14253;BME280;7210;51.502;10.722;2023-04-28T10:43:00;99718.78;;;13.94;67.01
14253;BME280;7210;51.502;10.722;2023-04-28T10:46:05;99726.53;;;13.96;66.95
14253;BME280;7210;51.502;10.722;2023-04-28T10:48:56;99726.34;;;14.02;67.11
14253;BME280;7210;51.502;10.722;2023-04-28T10:51:31;99725.03;;;14.05;66.99
14253;BME280;7210;51.502;10.722;2023-04-28T10:54:16;99750.34;;;14.24;67.23
14253;BME280;7210;51.502;10.722;2023-04-28T10:57:19;99743.03;;;14.36;66.94
14253;BME280;7210;51.502;10.722;2023-04-28T10:59:50;99743.19;;;14.46;66.66
14253;BME280;7210;51.502;10.722;2023-04-28T11:02:47;99708.41;;;14.31;67.06
14253;BME280;7210;51.502;10.722;2023-04-28T11:05:16;99672.91;;;14.20;66.84
14253;BME280;7210;51.502;10.722;2023-04-28T11:08:30;99691.06;;;14.07;67.58
14253;BME280;7210;51.502;10.722;2023-04-28T11:11:18;99706.81;;;14.13;67.38
14253;BME280;7210;51.502;10.722;2023-04-28T11:13:49;99686.28;;;14.09;67.31
14253;BME280;7210;51.502;10.722;2023-04-28T11:16:22;99686.72;;;14.01;67.73
14253;BME280;7210;51.502;10.722;2023-04-28T11:18:56;99683.34;;;13.89;68.26
14253;BME280;7210;51.502;10.722;2023-04-28T11:21:28;99724.41;;;13.98;68.34
14253;BME280;7210;51.502;10.722;2023-04-28T11:23:57;99715.84;;;13.91;68.49
14253;BME280;7210;51.502;10.722;2023-04-28T11:26:26;99688.41;;;13.69;68.96
14253;BME280;7210;51.502;10.722;2023-04-28T11:28:56;99717.56;;;13.64;69.55
14253;BME280;7210;51.502;10.722;2023-04-28T11:31:25;99720.28;;;13.52;70.00
14253;BME280;7210;51.502;10.722;2023-04-28T11:33:59;99738.41;;;13.39;70.84
14253;BME280;7210;51.502;10.722;2023-04-28T11:36:30;99762.63;;;13.42;71.21
14253;BME280;7210;51.502;10.722;2023-04-28T11:38:59;99772.78;;;13.45;71.62
14253;BME280;7210;51.502;10.722;2023-04-28T11:41:28;99760.31;;;13.46;71.79
14253;BME280;7210;51.502;10.722;2023-04-28T11:43:57;99769.88;;;13.47;72.07
14253;BME280;7210;51.502;10.722;2023-04-28T11:46:25;99751.75;;;13.44;71.84
14253;BME280;7210;51.502;10.722;2023-04-28T11:49:04;99757.31;;;13.59;72.14
14253;BME280;7210;51.502;10.722;2023-04-28T11:51:35;99780.91;;;13.72;72.24
14253;BME280;7210;51.502;10.722;2023-04-28T11:54:04;99770.75;;;13.85;72.00
14253;BME280;7210;51.502;10.722;2023-04-28T11:56:37;99724.41;;;13.98;71.34
14253;BME280;7210;51.502;10.722;2023-04-28T11:59:09;99754.59;;;14.08;71.50
14253;BME280;7210;51.502;10.722;2023-04-28T12:01:46;99747.19;;;14.27;71.04
14253;BME280;7210;51.502;10.722;2023-04-28T12:04:25;99742.56;;;14.39;70.83
14253;BME280;7210;51.502;10.722;2023-04-28T12:07:01;99744.41;;;14.38;70.98
14253;BME280;7210;51.502;10.722;2023-04-28T12:09:30;99725.66;;;14.28;71.46
14253;BME280;7210;51.502;10.722;2023-04-28T12:12:00;99704.19;;;14.35;70.84
14253;BME280;7210;51.502;10.722;2023-04-28T12:14:31;99674.69;;;14.36;70.55
14253;BME280;7210;51.502;10.722;2023-04-28T12:17:00;99654.63;;;14.29;70.46
14253;BME280;7210;51.502;10.722;2023-04-28T12:19:29;99651.88;;;14.19;70.50
14253;BME280;7210;51.502;10.722;2023-04-28T12:22:02;99636.88;;;14.13;70.66
14253;BME280;7210;51.502;10.722;2023-04-28T12:24:31;99656.06;;;14.15;71.09
14253;BME280;7210;51.502;10.722;2023-04-28T12:27:18;99681.97;;;14.24;71.19
14253;BME280;7210;51.502;10.722;2023-04-28T12:29:48;99698.44;;;14.43;71.04
14253;BME280;7210;51.502;10.722;2023-04-28T12:32:16;99693.66;;;14.45;70.92
14253;BME280;7210;51.502;10.722;2023-04-28T12:34:45;99690.06;;;14.56;70.73
14253;BME280;7210;51.502;10.722;2023-04-28T12:37:15;99709.34;;;14.68;70.84
14253;BME280;7210;51.502;10.722;2023-04-28T12:39:42;99673.16;;;14.67;70.57
14253;BME280;7210;51.502;10.722;2023-04-28T12:42:09;99664.69;;;14.70;70.47
14253;BME280;7210;51.502;10.722;2023-04-28T12:44:37;99668.41;;;14.69;70.69
14253;BME280;7210;51.502;10.722;2023-04-28T12:47:08;99666.28;;;14.71;70.91
14253;BME280;7210;51.502;10.722;2023-04-28T12:49:36;99710.63;;;14.87;70.88
14253;BME280;7210;51.502;10.722;2023-04-28T12:52:05;99688.28;;;14.88;71.03
14253;BME280;7210;51.502;10.722;2023-04-28T12:54:32;99680.22;;;14.83;70.99
14253;BME280;7210;51.502;10.722;2023-04-28T12:56:59;99670.31;;;14.73;71.32
14253;BME280;7210;51.502;10.722;2023-04-28T12:59:28;99637.41;;;14.58;71.33
14253;BME280;7210;51.502;10.722;2023-04-28T13:01:56;99644.22;;;14.49;71.62
14253;BME280;7210;51.502;10.722;2023-04-28T13:04:24;99654.78;;;14.39;71.95
14253;BME280;7210;51.502;10.722;2023-04-28T13:06:52;99670.91;;;14.32;72.57
14253;BME280;7210;51.502;10.722;2023-04-28T13:09:19;99697.88;;;14.41;72.67
14253;BME280;7210;51.502;10.722;2023-04-28T13:11:46;99672.50;;;14.33;72.61
14253;BME280;7210;51.502;10.722;2023-04-28T13:14:13;99661.22;;;14.21;72.78
14253;BME280;7210;51.502;10.722;2023-04-28T13:16:40;99657.09;;;14.14;73.07
14253;BME280;7210;51.502;10.722;2023-04-28T13:19:08;99662.84;;;14.06;73.85
14253;BME280;7210;51.502;10.722;2023-04-28T13:21:39;99679.59;;;14.06;74.42